sensor_id;sensor_type;location;lat;lon;timestamp;P1;durP1;ratioP1;P2;durP2;ratioP2
26253;SDS011;53339;51.378;0.094;2023-04-24T00:00:04;28.33;;;11.68;;
26253;SDS011;53339;51.378;0.094;2023-04-24T00:02:32;31.83;;;17.83;;
26253;SDS011;53339;51.378;0.094;2023-04-24T00:05:01;36.13;;;14.93;;
26253;SDS011;53339;51.378;0.094;2023-04-24T00:07:29;27.60;;;11.00;;
26253;SDS011;53339;51.378;0.094;2023-04-24T00:10:03;33.20;;;15.43;;
26253;SDS011;53339;51.378;0.094;2023-04-24T00:12:34;24.60;;;11.00;;
26253;SDS011;53339;51.378;0.094;2023-04-24T00:15:02;44.65;;;17.00;;
26253;SDS011;53339;51.378;0.094;2023-04-24T00:17:31;29.80;;;13.20;;
26253;SDS011;53339;51.378;0.094;2023-04-24T00:19:58;41.70;;;16.83;;
26253;SDS011;53339;51.378;0.094;2023-04-24T00:22:30;43.17;;;17.20;;
26253;SDS011;53339;51.378;0.094;2023-04-24T00:24:58;37.72;;;17.13;;
26253;SDS011;53339;51.378;0.094;2023-04-24T00:27:31;34.75;;;13.68;;
26253;SDS011;53339;51.378;0.094;2023-04-24T00:30:00;35.78;;;16.13;;
26253;SDS011;53339;51.378;0.094;2023-04-24T00:32:28;26.63;;;11.02;;
26253;SDS011;53339;51.378;0.094;2023-04-24T00:34:55;43.30;;;15.90;;
26253;SDS011;53339;51.378;0.094;2023-04-24T00:37:23;40.22;;;17.13;;
26253;SDS011;53339;51.378;0.094;2023-04-24T00:39:50;34.72;;;15.35;;
26253;SDS011;53339;51.378;0.094;2023-04-24T00:42:18;40.17;;;15.85;;
26253;SDS011;53339;51.378;0.094;2023-04-24T00:44:46;31.65;;;16.58;;
26253;SDS011;53339;51.378;0.094;2023-04-24T00:47:15;26.50;;;10.60;;
26253;SDS011;53339;51.378;0.094;2023-04-24T00:49:43;21.50;;;10.15;;
26253;SDS011;53339;51.378;0.094;2023-04-24T00:52:11;28.08;;;14.32;;
26253;SDS011;53339;51.378;0.094;2023-04-24T00:54:39;43.60;;;16.50;;
26253;SDS011;53339;51.378;0.094;2023-04-24T00:57:07;36.70;;;14.70;;
26253;SDS011;53339;51.378;0.094;2023-04-24T00:59:35;23.98;;;11.80;;
26253;SDS011;53339;51.378;0.094;2023-04-24T01:02:03;31.98;;;13.65;;
26253;SDS011;53339;51.378;0.094;2023-04-24T01:04:30;38.05;;;19.02;;
26253;SDS011;53339;51.378;0.094;2023-04-24T01:06:58;41.08;;;15.75;;
26253;SDS011;53339;51.378;0.094;2023-04-24T01:09:27;30.80;;;12.73;;
26253;SDS011;53339;51.378;0.094;2023-04-24T01:11:57;27.83;;;11.93;;
26253;SDS011;53339;51.378;0.094;2023-04-24T01:14:26;34.58;;;17.05;;
26253;SDS011;53339;51.378;0.094;2023-04-24T01:16:53;33.20;;;13.30;;
26253;SDS011;53339;51.378;0.094;2023-04-24T01:19:24;31.92;;;13.07;;
26253;SDS011;53339;51.378;0.094;2023-04-24T01:21:52;38.72;;;15.18;;
26253;SDS011;53339;51.378;0.094;2023-04-24T01:24:21;33.17;;;14.52;;
26253;SDS011;53339;51.378;0.094;2023-04-24T01:26:49;35.55;;;17.45;;
26253;SDS011;53339;51.378;0.094;2023-04-24T01:29:18;39.70;;;19.90;;
26253;SDS011;53339;51.378;0.094;2023-04-24T01:31:46;34.20;;;16.45;;
26253;SDS011;53339;51.378;0.094;2023-04-24T01:34:14;45.50;;;17.50;;
26253;SDS011;53339;51.378;0.094;2023-04-24T01:36:42;37.97;;;15.95;;
26253;SDS011;53339;51.378;0.094;2023-04-24T01:39:13;39.47;;;18.42;;
26253;SDS011;53339;51.378;0.094;2023-04-24T01:41:40;47.03;;;19.33;;
26253;SDS011;53339;51.378;0.094;2023-04-24T01:44:08;33.38;;;13.82;;
26253;SDS011;53339;51.378;0.094;2023-04-24T01:46:37;35.60;;;15.02;;
26253;SDS011;53339;51.378;0.094;2023-04-24T01:49:05;34.58;;;15.23;;
26253;SDS011;53339;51.378;0.094;2023-04-24T01:51:32;35.40;;;13.13;;
26253;SDS011;53339;51.378;0.094;2023-04-24T01:54:00;38.67;;;18.77;;
26253;SDS011;53339;51.378;0.094;2023-04-24T01:56:33;35.47;;;15.48;;
26253;SDS011;53339;51.378;0.094;2023-04-24T01:59:03;34.22;;;13.82;;
26253;SDS011;53339;51.378;0.094;2023-04-24T02:01:34;40.20;;;15.85;;
26253;SDS011;53339;51.378;0.094;2023-04-24T02:04:05;33.08;;;13.85;;
26253;SDS011;53339;51.378;0.094;2023-04-24T02:06:35;36.80;;;18.33;;
26253;SDS011;53339;51.378;0.094;2023-04-24T02:09:03;38.42;;;15.13;;
26253;SDS011;53339;51.378;0.094;2023-04-24T02:11:30;32.97;;;14.43;;
26253;SDS011;53339;51.378;0.094;2023-04-24T02:13:58;34.90;;;13.70;;
26253;SDS011;53339;51.378;0.094;2023-04-24T02:16:25;28.40;;;12.93;;
26253;SDS011;53339;51.378;0.094;2023-04-24T02:18:53;25.83;;;9.85;;
26253;SDS011;53339;51.378;0.094;2023-04-24T02:21:20;32.15;;;13.07;;
26253;SDS011;53339;51.378;0.094;2023-04-24T02:23:48;28.10;;;10.68;;
26253;SDS011;53339;51.378;0.094;2023-04-24T02:26:16;30.52;;;14.85;;
26253;SDS011;53339;51.378;0.094;2023-04-24T02:28:45;29.50;;;15.95;;
26253;SDS011;53339;51.378;0.094;2023-04-24T02:31:16;28.35;;;12.93;;
26253;SDS011;53339;51.378;0.094;2023-04-24T02:33:44;37.80;;;18.05;;
26253;SDS011;53339;51.378;0.094;2023-04-24T02:36:11;32.28;;;13.70;;
26253;SDS011;53339;51.378;0.094;2023-04-24T02:38:40;30.50;;;13.10;;
26253;SDS011;53339;51.378;0.094;2023-04-24T02:41:07;31.50;;;13.10;;
26253;SDS011;53339;51.378;0.094;2023-04-24T02:43:35;38.40;;;16.77;;
26253;SDS011;53339;51.378;0.094;2023-04-24T02:46:02;32.55;;;13.60;;
26253;SDS011;53339;51.378;0.094;2023-04-24T02:48:30;28.77;;;11.65;;
26253;SDS011;53339;51.378;0.094;2023-04-24T02:50:57;28.90;;;13.70;;
26253;SDS011;53339;51.378;0.094;2023-04-24T02:53:26;31.02;;;14.65;;
26253;SDS011;53339;51.378;0.094;2023-04-24T02:55:53;40.17;;;15.35;;
26253;SDS011;53339;51.378;0.094;2023-04-24T02:58:21;32.40;;;12.48;;
26253;SDS011;53339;51.378;0.094;2023-04-24T03:00:52;32.95;;;15.00;;
26253;SDS011;53339;51.378;0.094;2023-04-24T03:03:22;29.48;;;12.27;;
26253;SDS011;53339;51.378;0.094;2023-04-24T03:05:51;25.38;;;11.32;;
26253;SDS011;53339;51.378;0.094;2023-04-24T03:08:20;30.38;;;12.48;;
26253;SDS011;53339;51.378;0.094;2023-04-24T03:10:48;32.03;;;12.63;;
26253;SDS011;53339;51.378;0.094;2023-04-24T03:13:16;34.40;;;14.13;;
26253;SDS011;53339;51.378;0.094;2023-04-24T03:15:44;30.08;;;12.98;;
26253;SDS011;53339;51.378;0.094;2023-04-24T03:18:13;26.70;;;10.05;;
26253;SDS011;53339;51.378;0.094;2023-04-24T03:20:41;25.20;;;10.23;;
26253;SDS011;53339;51.378;0.094;2023-04-24T03:23:09;25.98;;;13.07;;
26253;SDS011;53339;51.378;0.094;2023-04-24T03:25:37;28.52;;;13.45;;
26253;SDS011;53339;51.378;0.094;2023-04-24T03:28:06;30.95;;;15.40;;
26253;SDS011;53339;51.378;0.094;2023-04-24T03:30:48;31.38;;;13.27;;
26253;SDS011;53339;51.378;0.094;2023-04-24T03:33:17;29.08;;;12.35;;
26253;SDS011;53339;51.378;0.094;2023-04-24T03:35:54;31.15;;;16.77;;
26253;SDS011;53339;51.378;0.094;2023-04-24T03:38:22;27.05;;;12.10;;
26253;SDS011;53339;51.378;0.094;2023-04-24T03:41:03;25.30;;;12.52;;
26253;SDS011;53339;51.378;0.094;2023-04-24T03:43:39;25.45;;;14.27;;
26253;SDS011;53339;51.378;0.094;2023-04-24T03:46:07;25.67;;;11.18;;
26253;SDS011;53339;51.378;0.094;2023-04-24T03:48:40;36.17;;;14.82;;
26253;SDS011;53339;51.378;0.094;2023-04-24T03:51:09;31.90;;;13.95;;
26253;SDS011;53339;51.378;0.094;2023-04-24T03:53:40;24.13;;;14.18;;
26253;SDS011;53339;51.378;0.094;2023-04-24T03:56:10;36.10;;;16.65;;
26253;SDS011;53339;51.378;0.094;2023-04-24T04:01:08;26.05;;;16.55;;
26253;SDS011;53339;51.378;0.094;2023-04-24T04:03:48;18.30;;;10.10;;
26253;SDS011;53339;51.378;0.094;2023-04-24T04:06:21;25.20;;;10.68;;
26253;SDS011;53339;51.378;0.094;2023-04-24T04:08:51;20.27;;;10.20;;
26253;SDS011;53339;51.378;0.094;2023-04-24T04:11:19;22.85;;;11.15;;
26253;SDS011;53339;51.378;0.094;2023-04-24T04:13:47;22.48;;;14.55;;
26253;SDS011;53339;51.378;0.094;2023-04-24T04:16:18;27.17;;;14.45;;
26253;SDS011;53339;51.378;0.094;2023-04-24T04:18:48;17.38;;;7.95;;
26253;SDS011;53339;51.378;0.094;2023-04-24T04:21:16;22.83;;;9.75;;
26253;SDS011;53339;51.378;0.094;2023-04-24T04:23:44;25.33;;;12.68;;
26253;SDS011;53339;51.378;0.094;2023-04-24T04:26:19;21.83;;;11.55;;
26253;SDS011;53339;51.378;0.094;2023-04-24T04:28:58;19.67;;;8.82;;
26253;SDS011;53339;51.378;0.094;2023-04-24T04:31:28;35.88;;;17.63;;
26253;SDS011;53339;51.378;0.094;2023-04-24T04:34:00;19.63;;;11.82;;
26253;SDS011;53339;51.378;0.094;2023-04-24T04:36:31;22.95;;;14.45;;
26253;SDS011;53339;51.378;0.094;2023-04-24T04:39:08;24.00;;;13.45;;
26253;SDS011;53339;51.378;0.094;2023-04-24T04:41:45;25.85;;;12.35;;
26253;SDS011;53339;51.378;0.094;2023-04-24T04:44:18;23.95;;;10.65;;
26253;SDS011;53339;51.378;0.094;2023-04-24T04:46:45;23.73;;;12.13;;
26253;SDS011;53339;51.378;0.094;2023-04-24T04:49:22;23.92;;;10.73;;
26253;SDS011;53339;51.378;0.094;2023-04-24T04:51:50;32.17;;;14.77;;
26253;SDS011;53339;51.378;0.094;2023-04-24T04:54:23;24.60;;;11.75;;
26253;SDS011;53339;51.378;0.094;2023-04-24T04:56:51;25.08;;;13.20;;
26253;SDS011;53339;51.378;0.094;2023-04-24T04:59:18;32.25;;;14.45;;
26253;SDS011;53339;51.378;0.094;2023-04-24T05:01:49;29.50;;;11.63;;
26253;SDS011;53339;51.378;0.094;2023-04-24T05:04:17;34.22;;;16.63;;
26253;SDS011;53339;51.378;0.094;2023-04-24T05:06:46;33.13;;;13.10;;
26253;SDS011;53339;51.378;0.094;2023-04-24T05:09:15;24.00;;;9.90;;
26253;SDS011;53339;51.378;0.094;2023-04-24T05:11:55;24.30;;;10.60;;
26253;SDS011;53339;51.378;0.094;2023-04-24T05:14:25;27.48;;;12.65;;
26253;SDS011;53339;51.378;0.094;2023-04-24T05:16:53;26.35;;;12.18;;
26253;SDS011;53339;51.378;0.094;2023-04-24T05:19:23;32.08;;;13.38;;
26253;SDS011;53339;51.378;0.094;2023-04-24T05:21:50;30.38;;;17.02;;
26253;SDS011;53339;51.378;0.094;2023-04-24T05:24:18;35.92;;;14.45;;
26253;SDS011;53339;51.378;0.094;2023-04-24T05:26:58;36.63;;;14.95;;
26253;SDS011;53339;51.378;0.094;2023-04-24T05:29:33;28.30;;;12.73;;
26253;SDS011;53339;51.378;0.094;2023-04-24T05:32:03;25.05;;;12.77;;
26253;SDS011;53339;51.378;0.094;2023-04-24T05:34:32;28.77;;;13.15;;
26253;SDS011;53339;51.378;0.094;2023-04-24T05:36:59;30.92;;;15.23;;
26253;SDS011;53339;51.378;0.094;2023-04-24T05:39:29;24.80;;;14.98;;
26253;SDS011;53339;51.378;0.094;2023-04-24T05:41:59;33.97;;;16.50;;
26253;SDS011;53339;51.378;0.094;2023-04-24T05:44:28;35.85;;;13.43;;
26253;SDS011;53339;51.378;0.094;2023-04-24T05:46:55;30.70;;;13.00;;
26253;SDS011;53339;51.378;0.094;2023-04-24T05:49:23;30.92;;;13.30;;
26253;SDS011;53339;51.378;0.094;2023-04-24T05:51:52;38.15;;;15.50;;
26253;SDS011;53339;51.378;0.094;2023-04-24T05:54:20;26.95;;;10.55;;
26253;SDS011;53339;51.378;0.094;2023-04-24T05:56:48;39.17;;;14.93;;
26253;SDS011;53339;51.378;0.094;2023-04-24T05:59:26;39.63;;;19.08;;
26253;SDS011;53339;51.378;0.094;2023-04-24T06:01:53;32.78;;;15.30;;
26253;SDS011;53339;51.378;0.094;2023-04-24T06:04:23;31.92;;;14.05;;
26253;SDS011;53339;51.378;0.094;2023-04-24T06:06:57;40.20;;;17.75;;
26253;SDS011;53339;51.378;0.094;2023-04-24T06:09:26;39.97;;;16.55;;
26253;SDS011;53339;51.378;0.094;2023-04-24T06:11:59;29.55;;;14.07;;
26253;SDS011;53339;51.378;0.094;2023-04-24T06:14:39;30.55;;;13.00;;
26253;SDS011;53339;51.378;0.094;2023-04-24T06:17:18;33.05;;;14.20;;
26253;SDS011;53339;51.378;0.094;2023-04-24T06:19:46;33.05;;;15.68;;
26253;SDS011;53339;51.378;0.094;2023-04-24T06:22:14;37.92;;;16.35;;
26253;SDS011;53339;51.378;0.094;2023-04-24T06:24:42;32.08;;;15.95;;
26253;SDS011;53339;51.378;0.094;2023-04-24T06:27:10;33.42;;;13.60;;
26253;SDS011;53339;51.378;0.094;2023-04-24T06:29:40;32.88;;;13.35;;
26253;SDS011;53339;51.378;0.094;2023-04-24T06:32:10;32.50;;;15.77;;
26253;SDS011;53339;51.378;0.094;2023-04-24T06:34:38;38.05;;;17.67;;
26253;SDS011;53339;51.378;0.094;2023-04-24T06:37:06;33.67;;;16.42;;
26253;SDS011;53339;51.378;0.094;2023-04-24T06:39:33;32.08;;;13.15;;
26253;SDS011;53339;51.378;0.094;2023-04-24T06:42:01;26.38;;;10.07;;
26253;SDS011;53339;51.378;0.094;2023-04-24T06:44:33;10.55;;;5.22;;
26253;SDS011;53339;51.378;0.094;2023-04-24T06:47:07;17.00;;;9.20;;
26253;SDS011;53339;51.378;0.094;2023-04-24T06:49:36;13.30;;;5.93;;
26253;SDS011;53339;51.378;0.094;2023-04-24T06:52:04;11.48;;;4.90;;
26253;SDS011;53339;51.378;0.094;2023-04-24T06:54:33;17.60;;;5.50;;
26253;SDS011;53339;51.378;0.094;2023-04-24T06:57:01;13.75;;;4.70;;
26253;SDS011;53339;51.378;0.094;2023-04-24T06:59:29;10.80;;;4.68;;
26253;SDS011;53339;51.378;0.094;2023-04-24T07:01:57;13.25;;;7.03;;
26253;SDS011;53339;51.378;0.094;2023-04-24T07:04:25;13.32;;;7.25;;
26253;SDS011;53339;51.378;0.094;2023-04-24T07:06:52;13.73;;;6.25;;
26253;SDS011;53339;51.378;0.094;2023-04-24T07:09:25;8.98;;;4.05;;
26253;SDS011;53339;51.378;0.094;2023-04-24T07:11:54;10.75;;;6.20;;
26253;SDS011;53339;51.378;0.094;2023-04-24T07:14:23;13.30;;;4.22;;
26253;SDS011;53339;51.378;0.094;2023-04-24T07:16:50;10.38;;;4.80;;
26253;SDS011;53339;51.378;0.094;2023-04-24T07:19:18;9.27;;;5.38;;
26253;SDS011;53339;51.378;0.094;2023-04-24T07:21:45;7.88;;;3.38;;
26253;SDS011;53339;51.378;0.094;2023-04-24T07:24:13;8.85;;;3.85;;
26253;SDS011;53339;51.378;0.094;2023-04-24T07:26:43;7.15;;;3.65;;
26253;SDS011;53339;51.378;0.094;2023-04-24T07:29:13;7.93;;;3.05;;
26253;SDS011;53339;51.378;0.094;2023-04-24T07:31:41;7.97;;;3.00;;
26253;SDS011;53339;51.378;0.094;2023-04-24T07:34:08;8.32;;;2.97;;
26253;SDS011;53339;51.378;0.094;2023-04-24T07:36:36;10.48;;;3.58;;
26253;SDS011;53339;51.378;0.094;2023-04-24T07:39:05;12.80;;;3.42;;
26253;SDS011;53339;51.378;0.094;2023-04-24T07:41:33;9.38;;;3.95;;
26253;SDS011;53339;51.378;0.094;2023-04-24T07:44:00;7.03;;;3.75;;
26253;SDS011;53339;51.378;0.094;2023-04-24T07:46:29;9.05;;;5.72;;
26253;SDS011;53339;51.378;0.094;2023-04-24T07:48:57;7.00;;;2.92;;
26253;SDS011;53339;51.378;0.094;2023-04-24T07:51:39;9.07;;;3.17;;
26253;SDS011;53339;51.378;0.094;2023-04-24T07:54:07;12.15;;;4.35;;
26253;SDS011;53339;51.378;0.094;2023-04-24T07:56:34;9.80;;;6.28;;
26253;SDS011;53339;51.378;0.094;2023-04-24T07:59:05;9.95;;;6.82;;
26253;SDS011;53339;51.378;0.094;2023-04-24T08:01:33;7.60;;;3.17;;
26253;SDS011;53339;51.378;0.094;2023-04-24T08:04:00;11.82;;;3.22;;
26253;SDS011;53339;51.378;0.094;2023-04-24T08:06:29;8.43;;;2.90;;
26253;SDS011;53339;51.378;0.094;2023-04-24T08:08:57;7.90;;;3.30;;
26253;SDS011;53339;51.378;0.094;2023-04-24T08:11:25;8.02;;;3.17;;
26253;SDS011;53339;51.378;0.094;2023-04-24T08:13:53;9.07;;;2.80;;
26253;SDS011;53339;51.378;0.094;2023-04-24T08:16:22;7.70;;;3.42;;
26253;SDS011;53339;51.378;0.094;2023-04-24T08:18:51;5.72;;;2.75;;
26253;SDS011;53339;51.378;0.094;2023-04-24T08:21:19;8.13;;;2.60;;
26253;SDS011;53339;51.378;0.094;2023-04-24T08:23:47;8.88;;;3.75;;
26253;SDS011;53339;51.378;0.094;2023-04-24T08:26:15;8.35;;;5.38;;
26253;SDS011;53339;51.378;0.094;2023-04-24T08:28:43;6.75;;;3.15;;
26253;SDS011;53339;51.378;0.094;2023-04-24T08:31:11;11.52;;;3.13;;
26253;SDS011;53339;51.378;0.094;2023-04-24T08:33:39;9.38;;;3.47;;
26253;SDS011;53339;51.378;0.094;2023-04-24T08:36:07;7.88;;;2.88;;
26253;SDS011;53339;51.378;0.094;2023-04-24T08:38:35;6.88;;;2.58;;
26253;SDS011;53339;51.378;0.094;2023-04-24T08:41:02;10.13;;;2.72;;
26253;SDS011;53339;51.378;0.094;2023-04-24T08:43:33;7.05;;;2.65;;
26253;SDS011;53339;51.378;0.094;2023-04-24T08:46:03;7.60;;;3.05;;
26253;SDS011;53339;51.378;0.094;2023-04-24T08:48:35;7.63;;;4.68;;
26253;SDS011;53339;51.378;0.094;2023-04-24T08:51:03;8.05;;;2.40;;
26253;SDS011;53339;51.378;0.094;2023-04-24T08:53:35;5.00;;;2.30;;
26253;SDS011;53339;51.378;0.094;2023-04-24T08:56:03;5.25;;;2.42;;
26253;SDS011;53339;51.378;0.094;2023-04-24T08:58:32;6.95;;;2.45;;
26253;SDS011;53339;51.378;0.094;2023-04-24T09:01:02;8.93;;;3.40;;
26253;SDS011;53339;51.378;0.094;2023-04-24T09:03:31;7.78;;;2.63;;
26253;SDS011;53339;51.378;0.094;2023-04-24T09:06:01;11.80;;;3.08;;
26253;SDS011;53339;51.378;0.094;2023-04-24T09:08:32;6.80;;;2.75;;
26253;SDS011;53339;51.378;0.094;2023-04-24T09:11:01;9.98;;;5.68;;
26253;SDS011;53339;51.378;0.094;2023-04-24T09:13:30;9.15;;;3.20;;
26253;SDS011;53339;51.378;0.094;2023-04-24T09:15:59;7.68;;;3.25;;
26253;SDS011;53339;51.378;0.094;2023-04-24T09:18:27;16.77;;;6.00;;
26253;SDS011;53339;51.378;0.094;2023-04-24T09:20:59;8.30;;;3.50;;
26253;SDS011;53339;51.378;0.094;2023-04-24T09:23:31;11.05;;;5.78;;
26253;SDS011;53339;51.378;0.094;2023-04-24T09:26:00;6.90;;;3.22;;
26253;SDS011;53339;51.378;0.094;2023-04-24T09:28:30;11.63;;;3.40;;
26253;SDS011;53339;51.378;0.094;2023-04-24T09:31:03;10.07;;;3.53;;
26253;SDS011;53339;51.378;0.094;2023-04-24T09:33:50;10.45;;;3.85;;
26253;SDS011;53339;51.378;0.094;2023-04-24T09:36:33;6.82;;;2.53;;
26253;SDS011;53339;51.378;0.094;2023-04-24T09:39:05;8.85;;;3.22;;
26253;SDS011;53339;51.378;0.094;2023-04-24T09:41:52;9.25;;;6.72;;
26253;SDS011;53339;51.378;0.094;2023-04-24T09:44:22;6.90;;;3.53;;
26253;SDS011;53339;51.378;0.094;2023-04-24T09:46:56;7.15;;;3.60;;
26253;SDS011;53339;51.378;0.094;2023-04-24T09:49:27;9.65;;;3.63;;
26253;SDS011;53339;51.378;0.094;2023-04-24T09:52:06;6.57;;;4.97;;
26253;SDS011;53339;51.378;0.094;2023-04-24T09:54:46;12.93;;;5.25;;
26253;SDS011;53339;51.378;0.094;2023-04-24T09:57:22;9.80;;;3.90;;
26253;SDS011;53339;51.378;0.094;2023-04-24T09:59:49;10.10;;;5.88;;
26253;SDS011;53339;51.378;0.094;2023-04-24T10:02:20;7.13;;;3.28;;
26253;SDS011;53339;51.378;0.094;2023-04-24T10:04:55;10.32;;;5.07;;
26253;SDS011;53339;51.378;0.094;2023-04-24T10:07:25;8.93;;;5.00;;
26253;SDS011;53339;51.378;0.094;2023-04-24T10:12:21;11.82;;;5.63;;
26253;SDS011;53339;51.378;0.094;2023-04-24T10:14:50;7.60;;;3.50;;
26253;SDS011;53339;51.378;0.094;2023-04-24T10:17:21;8.60;;;5.57;;
26253;SDS011;53339;51.378;0.094;2023-04-24T10:19:51;6.70;;;2.85;;
26253;SDS011;53339;51.378;0.094;2023-04-24T10:22:19;9.48;;;3.25;;
26253;SDS011;53339;51.378;0.094;2023-04-24T10:24:48;10.30;;;5.05;;
26253;SDS011;53339;51.378;0.094;2023-04-24T10:27:17;8.80;;;3.30;;
26253;SDS011;53339;51.378;0.094;2023-04-24T10:29:47;8.30;;;5.20;;
26253;SDS011;53339;51.378;0.094;2023-04-24T10:32:17;9.60;;;3.63;;
26253;SDS011;53339;51.378;0.094;2023-04-24T10:34:44;6.63;;;5.28;;
26253;SDS011;53339;51.378;0.094;2023-04-24T10:37:12;7.05;;;4.00;;
26253;SDS011;53339;51.378;0.094;2023-04-24T10:39:40;7.97;;;3.67;;
26253;SDS011;53339;51.378;0.094;2023-04-24T10:42:15;9.13;;;6.03;;
26253;SDS011;53339;51.378;0.094;2023-04-24T10:44:43;4.60;;;2.30;;
26253;SDS011;53339;51.378;0.094;2023-04-24T10:47:13;9.68;;;6.32;;
26253;SDS011;53339;51.378;0.094;2023-04-24T10:49:41;9.15;;;6.07;;
26253;SDS011;53339;51.378;0.094;2023-04-24T10:52:09;9.13;;;5.68;;
26253;SDS011;53339;51.378;0.094;2023-04-24T11:02:45;9.43;;;4.07;;
26253;SDS011;53339;51.378;0.094;2023-04-24T11:05:17;22.42;;;10.00;;
26253;SDS011;53339;51.378;0.094;2023-04-24T11:10:43;12.68;;;8.32;;
26253;SDS011;53339;51.378;0.094;2023-04-24T11:13:20;14.38;;;4.70;;
26253;SDS011;53339;51.378;0.094;2023-04-24T11:18:52;18.30;;;7.70;;
26253;SDS011;53339;51.378;0.094;2023-04-24T11:21:40;13.45;;;4.95;;
26253;SDS011;53339;51.378;0.094;2023-04-24T11:27:12;8.18;;;3.78;;
26253;SDS011;53339;51.378;0.094;2023-04-24T11:29:46;11.52;;;6.15;;
26253;SDS011;53339;51.378;0.094;2023-04-24T11:32:24;9.73;;;6.20;;
26253;SDS011;53339;51.378;0.094;2023-04-24T11:35:00;13.88;;;5.03;;
26253;SDS011;53339;51.378;0.094;2023-04-24T11:37:41;10.90;;;4.70;;
26253;SDS011;53339;51.378;0.094;2023-04-24T11:40:15;9.80;;;3.78;;
26253;SDS011;53339;51.378;0.094;2023-04-24T11:42:47;9.35;;;3.55;;
26253;SDS011;53339;51.378;0.094;2023-04-24T11:45:16;10.65;;;4.53;;
26253;SDS011;53339;51.378;0.094;2023-04-24T11:47:52;9.07;;;3.67;;
26253;SDS011;53339;51.378;0.094;2023-04-24T11:50:21;11.88;;;3.92;;
26253;SDS011;53339;51.378;0.094;2023-04-24T11:52:50;9.75;;;4.30;;
26253;SDS011;53339;51.378;0.094;2023-04-24T11:57:50;8.55;;;4.00;;
26253;SDS011;53339;51.378;0.094;2023-04-24T12:00:23;9.90;;;4.57;;
26253;SDS011;53339;51.378;0.094;2023-04-24T12:03:13;9.82;;;4.03;;
26253;SDS011;53339;51.378;0.094;2023-04-24T12:05:42;12.05;;;5.75;;
26253;SDS011;53339;51.378;0.094;2023-04-24T12:08:11;9.60;;;3.55;;
26253;SDS011;53339;51.378;0.094;2023-04-24T12:10:39;8.52;;;6.35;;
26253;SDS011;53339;51.378;0.094;2023-04-24T12:13:07;9.02;;;4.10;;
26253;SDS011;53339;51.378;0.094;2023-04-24T12:15:41;12.38;;;6.45;;
26253;SDS011;53339;51.378;0.094;2023-04-24T12:18:11;9.02;;;3.83;;
26253;SDS011;53339;51.378;0.094;2023-04-24T12:20:40;8.70;;;5.88;;
26253;SDS011;53339;51.378;0.094;2023-04-24T12:23:08;7.53;;;3.85;;
26253;SDS011;53339;51.378;0.094;2023-04-24T12:25:36;7.97;;;5.03;;
26253;SDS011;53339;51.378;0.094;2023-04-24T12:30:34;10.77;;;5.95;;
26253;SDS011;53339;51.378;0.094;2023-04-24T12:33:05;13.88;;;5.93;;
26253;SDS011;53339;51.378;0.094;2023-04-24T12:35:32;10.73;;;6.00;;
26253;SDS011;53339;51.378;0.094;2023-04-24T12:40:36;9.02;;;5.05;;
26253;SDS011;53339;51.378;0.094;2023-04-24T12:43:17;9.38;;;5.68;;
26253;SDS011;53339;51.378;0.094;2023-04-24T12:45:49;9.85;;;6.50;;
26253;SDS011;53339;51.378;0.094;2023-04-24T12:48:16;8.30;;;5.75;;
26253;SDS011;53339;51.378;0.094;2023-04-24T12:50:44;8.25;;;5.00;;
26253;SDS011;53339;51.378;0.094;2023-04-24T12:53:13;9.60;;;5.90;;
26253;SDS011;53339;51.378;0.094;2023-04-24T12:55:41;8.00;;;5.18;;
26253;SDS011;53339;51.378;0.094;2023-04-24T12:58:09;8.85;;;6.30;;
26253;SDS011;53339;51.378;0.094;2023-04-24T13:00:37;11.70;;;5.70;;
26253;SDS011;53339;51.378;0.094;2023-04-24T13:03:05;8.90;;;5.38;;
26253;SDS011;53339;51.378;0.094;2023-04-24T13:05:33;7.72;;;5.47;;
26253;SDS011;53339;51.378;0.094;2023-04-24T13:08:00;9.10;;;3.80;;
26253;SDS011;53339;51.378;0.094;2023-04-24T13:10:28;11.60;;;6.47;;
26253;SDS011;53339;51.378;0.094;2023-04-24T13:12:56;10.90;;;4.05;;
26253;SDS011;53339;51.378;0.094;2023-04-24T13:15:24;8.45;;;5.78;;
26253;SDS011;53339;51.378;0.094;2023-04-24T13:17:51;9.48;;;6.13;;
26253;SDS011;53339;51.378;0.094;2023-04-24T13:20:19;9.30;;;5.63;;
26253;SDS011;53339;51.378;0.094;2023-04-24T13:22:46;8.68;;;5.75;;
26253;SDS011;53339;51.378;0.094;2023-04-24T13:25:14;9.30;;;5.15;;
26253;SDS011;53339;51.378;0.094;2023-04-24T13:30:11;9.27;;;3.63;;
26253;SDS011;53339;51.378;0.094;2023-04-24T13:32:39;7.65;;;3.05;;
26253;SDS011;53339;51.378;0.094;2023-04-24T13:35:07;10.07;;;5.10;;
26253;SDS011;53339;51.378;0.094;2023-04-24T13:37:35;7.93;;;5.18;;
26253;SDS011;53339;51.378;0.094;2023-04-24T13:40:02;10.20;;;6.32;;
26253;SDS011;53339;51.378;0.094;2023-04-24T13:42:33;9.13;;;5.22;;
26253;SDS011;53339;51.378;0.094;2023-04-24T13:45:00;9.52;;;5.00;;
26253;SDS011;53339;51.378;0.094;2023-04-24T13:47:40;9.32;;;5.20;;
26253;SDS011;53339;51.378;0.094;2023-04-24T13:50:08;8.40;;;5.60;;
26253;SDS011;53339;51.378;0.094;2023-04-24T13:52:36;8.43;;;5.95;;
26253;SDS011;53339;51.378;0.094;2023-04-24T13:55:04;9.50;;;5.60;;
26253;SDS011;53339;51.378;0.094;2023-04-24T13:57:32;7.22;;;3.47;;
26253;SDS011;53339;51.378;0.094;2023-04-24T14:00:01;8.70;;;3.45;;
26253;SDS011;53339;51.378;0.094;2023-04-24T14:02:33;11.45;;;5.22;;
26253;SDS011;53339;51.378;0.094;2023-04-24T14:05:00;8.70;;;6.53;;
26253;SDS011;53339;51.378;0.094;2023-04-24T14:07:28;10.15;;;5.50;;
26253;SDS011;53339;51.378;0.094;2023-04-24T14:09:57;7.78;;;4.85;;
26253;SDS011;53339;51.378;0.094;2023-04-24T14:12:24;9.18;;;3.78;;
26253;SDS011;53339;51.378;0.094;2023-04-24T14:14:52;7.53;;;4.80;;
26253;SDS011;53339;51.378;0.094;2023-04-24T14:17:20;7.20;;;5.20;;
26253;SDS011;53339;51.378;0.094;2023-04-24T14:19:48;7.97;;;3.15;;
26253;SDS011;53339;51.378;0.094;2023-04-24T14:22:19;7.03;;;5.18;;
26253;SDS011;53339;51.378;0.094;2023-04-24T14:24:47;8.27;;;4.80;;
26253;SDS011;53339;51.378;0.094;2023-04-24T14:27:14;8.07;;;5.13;;
26253;SDS011;53339;51.378;0.094;2023-04-24T14:29:42;8.65;;;5.88;;
26253;SDS011;53339;51.378;0.094;2023-04-24T14:32:09;7.93;;;5.32;;
26253;SDS011;53339;51.378;0.094;2023-04-24T14:34:37;12.18;;;5.35;;
26253;SDS011;53339;51.378;0.094;2023-04-24T14:37:04;8.45;;;5.40;;
26253;SDS011;53339;51.378;0.094;2023-04-24T14:39:32;8.82;;;4.10;;
26253;SDS011;53339;51.378;0.094;2023-04-24T14:42:00;7.53;;;4.65;;
26253;SDS011;53339;51.378;0.094;2023-04-24T14:44:28;6.63;;;4.90;;
26253;SDS011;53339;51.378;0.094;2023-04-24T14:46:55;8.10;;;4.28;;
26253;SDS011;53339;51.378;0.094;2023-04-24T14:49:23;8.85;;;3.10;;
26253;SDS011;53339;51.378;0.094;2023-04-24T14:51:51;9.25;;;3.15;;
26253;SDS011;53339;51.378;0.094;2023-04-24T14:54:18;8.75;;;5.28;;
26253;SDS011;53339;51.378;0.094;2023-04-24T14:56:49;7.15;;;4.90;;
26253;SDS011;53339;51.378;0.094;2023-04-24T14:59:17;8.23;;;4.93;;
26253;SDS011;53339;51.378;0.094;2023-04-24T15:01:45;7.60;;;5.07;;
26253;SDS011;53339;51.378;0.094;2023-04-24T15:04:13;9.32;;;5.38;;
26253;SDS011;53339;51.378;0.094;2023-04-24T15:06:41;6.97;;;2.90;;
26253;SDS011;53339;51.378;0.094;2023-04-24T15:09:09;7.35;;;4.82;;
26253;SDS011;53339;51.378;0.094;2023-04-24T15:11:43;8.77;;;2.80;;
26253;SDS011;53339;51.378;0.094;2023-04-24T15:14:10;8.23;;;4.65;;
26253;SDS011;53339;51.378;0.094;2023-04-24T15:16:38;7.45;;;5.35;;
26253;SDS011;53339;51.378;0.094;2023-04-24T15:19:06;8.60;;;5.00;;